sensor_id;sensor_type;location;lat;lon;timestamp;pressure;altitude;pressure_sealevel;temperature;humidity
36284;BME280;56085;48.910;9.478;2023-02-19T00:00:58;98711.66;;;7.71;92.13
36284;BME280;56085;48.910;9.478;2023-02-19T00:03:25;98709.84;;;7.75;92.72
36284;BME280;56085;48.910;9.478;2023-02-19T00:05:50;98704.00;;;7.77;92.15
36284;BME280;56085;48.910;9.478;2023-02-19T00:08:15;98707.69;;;7.81;92.14
36284;BME280;56085;48.910;9.478;2023-02-19T00:10:40;98707.41;;;7.74;93.05
36284;BME280;56085;48.910;9.478;2023-02-19T00:13:05;98701.91;;;7.74;93.09
36284;BME280;56085;48.910;9.478;2023-02-19T00:15:31;98702.41;;;7.76;92.42
36284;BME280;56085;48.910;9.478;2023-02-19T00:17:56;98697.69;;;7.76;92.79
36284;BME280;56085;48.910;9.478;2023-02-19T00:20:21;98696.22;;;7.79;93.16
36284;BME280;56085;48.910;9.478;2023-02-19T00:22:47;98689.44;;;7.76;93.05
36284;BME280;56085;48.910;9.478;2023-02-19T00:25:12;98693.81;;;7.77;93.39
36284;BME280;56085;48.910;9.478;2023-02-19T00:27:37;98700.09;;;7.78;92.59
36284;BME280;56085;48.910;9.478;2023-02-19T00:30:02;98693.47;;;7.79;93.27
36284;BME280;56085;48.910;9.478;2023-02-19T00:32:27;98694.75;;;7.81;93.54
36284;BME280;56085;48.910;9.478;2023-02-19T00:34:53;98698.31;;;7.82;93.42
36284;BME280;56085;48.910;9.478;2023-02-19T00:37:18;98690.38;;;7.80;93.27
36284;BME280;56085;48.910;9.478;2023-02-19T00:39:43;98696.34;;;7.82;93.58
36284;BME280;56085;48.910;9.478;2023-02-19T00:42:08;98702.69;;;7.83;93.37
36284;BME280;56085;48.910;9.478;2023-02-19T00:44:33;98703.47;;;7.83;94.21
36284;BME280;56085;48.910;9.478;2023-02-19T00:46:58;98700.59;;;7.80;94.06
36284;BME280;56085;48.910;9.478;2023-02-19T00:49:24;98693.31;;;7.75;93.58
36284;BME280;56085;48.910;9.478;2023-02-19T00:51:49;98694.16;;;7.76;93.81
36284;BME280;56085;48.910;9.478;2023-02-19T00:54:16;98699.66;;;7.76;93.70
36284;BME280;56085;48.910;9.478;2023-02-19T00:56:41;98702.06;;;7.77;94.35
36284;BME280;56085;48.910;9.478;2023-02-19T00:59:06;98694.47;;;7.74;94.18
36284;BME280;56085;48.910;9.478;2023-02-19T01:01:32;98691.38;;;7.76;94.08
36284;BME280;56085;48.910;9.478;2023-02-19T01:03:57;98685.22;;;7.79;94.09
36284;BME280;56085;48.910;9.478;2023-02-19T01:06:22;98679.22;;;7.77;94.24
36284;BME280;56085;48.910;9.478;2023-02-19T01:08:48;98681.50;;;7.75;94.71
36284;BME280;56085;48.910;9.478;2023-02-19T01:11:13;98671.63;;;7.74;94.24
36284;BME280;56085;48.910;9.478;2023-02-19T01:13:39;98672.47;;;7.74;94.24
36284;BME280;56085;48.910;9.478;2023-02-19T01:16:09;98664.53;;;7.73;94.50
36284;BME280;56085;48.910;9.478;2023-02-19T01:18:35;98661.13;;;7.76;94.31
36284;BME280;56085;48.910;9.478;2023-02-19T01:21:04;98659.50;;;7.75;95.16
36284;BME280;56085;48.910;9.478;2023-02-19T01:23:29;98663.19;;;7.79;94.97
36284;BME280;56085;48.910;9.478;2023-02-19T01:25:54;98647.00;;;7.77;95.42
36284;BME280;56085;48.910;9.478;2023-02-19T01:28:19;98641.50;;;7.77;95.24
36284;BME280;56085;48.910;9.478;2023-02-19T01:30:46;98648.16;;;7.76;95.75
36284;BME280;56085;48.910;9.478;2023-02-19T01:33:11;98647.34;;;7.76;95.68
36284;BME280;56085;48.910;9.478;2023-02-19T01:35:37;98655.13;;;7.74;95.86
36284;BME280;56085;48.910;9.478;2023-02-19T01:38:03;98647.19;;;7.72;95.76
36284;BME280;56085;48.910;9.478;2023-02-19T01:40:28;98639.75;;;7.73;95.68
36284;BME280;56085;48.910;9.478;2023-02-19T01:42:53;98635.84;;;7.74;95.94
36284;BME280;56085;48.910;9.478;2023-02-19T01:45:23;98625.66;;;7.74;95.81
36284;BME280;56085;48.910;9.478;2023-02-19T01:47:50;98631.16;;;7.74;96.47
36284;BME280;56085;48.910;9.478;2023-02-19T01:50:17;98631.16;;;7.74;96.30
36284;BME280;56085;48.910;9.478;2023-02-19T01:52:42;98633.59;;;7.76;96.18
36284;BME280;56085;48.910;9.478;2023-02-19T01:55:09;98634.25;;;7.73;96.41
36284;BME280;56085;48.910;9.478;2023-02-19T01:57:38;98623.25;;;7.73;96.51
36284;BME280;56085;48.910;9.478;2023-02-19T02:00:08;98626.00;;;7.73;97.05
36284;BME280;56085;48.910;9.478;2023-02-19T02:02:34;98625.19;;;7.72;97.02
36284;BME280;56085;48.910;9.478;2023-02-19T02:04:59;98622.91;;;7.74;96.83
36284;BME280;56085;48.910;9.478;2023-02-19T02:07:25;98623.72;;;7.75;96.88
36284;BME280;56085;48.910;9.478;2023-02-19T02:10:09;98622.09;;;7.74;97.13
36284;BME280;56085;48.910;9.478;2023-02-19T02:12:51;98628.41;;;7.74;97.10
36284;BME280;56085;48.910;9.478;2023-02-19T02:15:16;98619.81;;;7.76;97.43
36284;BME280;56085;48.910;9.478;2023-02-19T02:17:52;98623.38;;;7.76;97.49
36284;BME280;56085;48.910;9.478;2023-02-19T02:25:59;98616.75;;;7.77;97.27
36284;BME280;56085;48.910;9.478;2023-02-19T02:31:05;98606.06;;;7.76;97.97
36284;BME280;56085;48.910;9.478;2023-02-19T02:33:47;98609.50;;;7.73;97.46
36284;BME280;56085;48.910;9.478;2023-02-19T02:36:21;98612.25;;;7.73;97.97
36284;BME280;56085;48.910;9.478;2023-02-19T02:38:48;98611.41;;;7.72;98.00
36284;BME280;56085;48.910;9.478;2023-02-19T02:41:14;98603.97;;;7.73;98.19
36284;BME280;56085;48.910;9.478;2023-02-19T02:43:40;98598.81;;;7.71;98.31
36284;BME280;56085;48.910;9.478;2023-02-19T02:46:05;98590.91;;;7.69;98.52
36284;BME280;56085;48.910;9.478;2023-02-19T02:48:38;98593.97;;;7.68;98.41
36284;BME280;56085;48.910;9.478;2023-02-19T02:51:16;98601.75;;;7.66;98.46
36284;BME280;56085;48.910;9.478;2023-02-19T02:56:41;98600.13;;;7.65;98.28
36284;BME280;56085;48.910;9.478;2023-02-19T02:59:08;98595.78;;;7.64;98.70
36284;BME280;56085;48.910;9.478;2023-02-19T03:01:49;98593.03;;;7.64;98.52
36284;BME280;56085;48.910;9.478;2023-02-19T03:04:43;98595.44;;;7.65;98.96
36284;BME280;56085;48.910;9.478;2023-02-19T03:07:32;98596.59;;;7.64;98.92
36284;BME280;56085;48.910;9.478;2023-02-19T03:09:59;98596.13;;;7.62;99.11
36284;BME280;56085;48.910;9.478;2023-02-19T03:12:26;98599.22;;;7.61;99.50
36284;BME280;56085;48.910;9.478;2023-02-19T03:15:11;98589.78;;;7.62;99.69
36284;BME280;56085;48.910;9.478;2023-02-19T03:17:58;98581.53;;;7.62;99.12
36284;BME280;56085;48.910;9.478;2023-02-19T03:20:45;98581.19;;;7.63;99.79
36284;BME280;56085;48.910;9.478;2023-02-19T03:23:11;98579.94;;;7.61;100.00
36284;BME280;56085;48.910;9.478;2023-02-19T03:25:38;98588.19;;;7.61;99.75
36284;BME280;56085;48.910;9.478;2023-02-19T03:28:23;98583.50;;;7.61;99.89
36284;BME280;56085;48.910;9.478;2023-02-19T03:31:10;98576.38;;;7.60;99.90
36284;BME280;56085;48.910;9.478;2023-02-19T03:33:37;98584.16;;;7.58;100.00
36284;BME280;56085;48.910;9.478;2023-02-19T03:36:04;98580.75;;;7.61;100.00
36284;BME280;56085;48.910;9.478;2023-02-19T03:38:35;98586.72;;;7.63;100.00
36284;BME280;56085;48.910;9.478;2023-02-19T03:41:04;98577.50;;;7.59;100.00
36284;BME280;56085;48.910;9.478;2023-02-19T03:48:32;98580.94;;;7.56;100.00
36284;BME280;56085;48.910;9.478;2023-02-19T03:51:01;98580.59;;;7.58;100.00
36284;BME280;56085;48.910;9.478;2023-02-19T03:53:31;98586.91;;;7.58;100.00
36284;BME280;56085;48.910;9.478;2023-02-19T03:56:21;98595.16;;;7.58;100.00
36284;BME280;56085;48.910;9.478;2023-02-19T04:01:11;98598.72;;;7.59;100.00
36284;BME280;56085;48.910;9.478;2023-02-19T04:03:40;98603.44;;;7.58;100.00
36284;BME280;56085;48.910;9.478;2023-02-19T04:06:13;98603.44;;;7.58;100.00
36284;BME280;56085;48.910;9.478;2023-02-19T04:08:40;98609.06;;;7.62;100.00
36284;BME280;56085;48.910;9.478;2023-02-19T04:11:07;98607.47;;;7.61;100.00
36284;BME280;56085;48.910;9.478;2023-02-19T04:13:35;98607.47;;;7.61;100.00
36284;BME280;56085;48.910;9.478;2023-02-19T04:16:05;98609.38;;;7.60;100.00
36284;BME280;56085;48.910;9.478;2023-02-19T04:18:32;98611.81;;;7.62;100.00
36284;BME280;56085;48.910;9.478;2023-02-19T04:20:58;98614.09;;;7.60;100.00
36284;BME280;56085;48.910;9.478;2023-02-19T04:23:24;98615.84;;;7.64;100.00
36284;BME280;56085;48.910;9.478;2023-02-19T04:25:51;98620.41;;;7.60;100.00
36284;BME280;56085;48.910;9.478;2023-02-19T04:28:18;98621.22;;;7.61;100.00
36284;BME280;56085;48.910;9.478;2023-02-19T04:30:43;98624.44;;;7.63;100.00
36284;BME280;56085;48.910;9.478;2023-02-19T04:33:09;98627.97;;;7.63;100.00
36284;BME280;56085;48.910;9.478;2023-02-19T04:35:34;98633.50;;;7.63;100.00
36284;BME280;56085;48.910;9.478;2023-02-19T04:37:59;98640.00;;;7.59;100.00
36284;BME280;56085;48.910;9.478;2023-02-19T04:40:25;98635.16;;;7.56;100.00
36284;BME280;56085;48.910;9.478;2023-02-19T04:42:50;98638.44;;;7.49;100.00
36284;BME280;56085;48.910;9.478;2023-02-19T04:45:15;98642.66;;;7.46;100.00
36284;BME280;56085;48.910;9.478;2023-02-19T04:47:40;98645.25;;;7.43;100.00
36284;BME280;56085;48.910;9.478;2023-02-19T04:50:05;98647.06;;;7.39;100.00
36284;BME280;56085;48.910;9.478;2023-02-19T04:52:31;98647.25;;;7.33;100.00
36284;BME280;56085;48.910;9.478;2023-02-19T04:54:57;98661.69;;;7.30;100.00
36284;BME280;56085;48.910;9.478;2023-02-19T04:57:22;98651.00;;;7.29;100.00
36284;BME280;56085;48.910;9.478;2023-02-19T04:59:47;98642.59;;;7.25;100.00
36284;BME280;56085;48.910;9.478;2023-02-19T05:02:12;98652.31;;;7.23;100.00
36284;BME280;56085;48.910;9.478;2023-02-19T05:04:37;98654.25;;;7.22;100.00
36284;BME280;56085;48.910;9.478;2023-02-19T05:07:03;98661.72;;;7.22;100.00
36284;BME280;56085;48.910;9.478;2023-02-19T05:09:28;98660.28;;;7.15;100.00
36284;BME280;56085;48.910;9.478;2023-02-19T05:11:53;98662.22;;;7.15;100.00
36284;BME280;56085;48.910;9.478;2023-02-19T05:14:18;98665.28;;;7.13;100.00
36284;BME280;56085;48.910;9.478;2023-02-19T05:16:43;98660.59;;;7.14;100.00
36284;BME280;56085;48.910;9.478;2023-02-19T05:19:11;98664.00;;;7.11;100.00
36284;BME280;56085;48.910;9.478;2023-02-19T05:21:37;98665.16;;;7.10;100.00
36284;BME280;56085;48.910;9.478;2023-02-19T05:24:04;98659.16;;;7.08;100.00
36284;BME280;56085;48.910;9.478;2023-02-19T05:26:29;98654.00;;;7.06;100.00
36284;BME280;56085;48.910;9.478;2023-02-19T05:28:56;98649.63;;;7.05;100.00
36284;BME280;56085;48.910;9.478;2023-02-19T05:31:21;98653.53;;;7.04;100.00
36284;BME280;56085;48.910;9.478;2023-02-19T05:33:46;98657.72;;;7.02;100.00
36284;BME280;56085;48.910;9.478;2023-02-19T05:36:15;98659.34;;;7.03;100.00
36284;BME280;56085;48.910;9.478;2023-02-19T05:38:40;98661.78;;;7.04;100.00
36284;BME280;56085;48.910;9.478;2023-02-19T05:41:07;98666.44;;;7.04;100.00
36284;BME280;56085;48.910;9.478;2023-02-19T05:43:32;98670.81;;;7.05;100.00
36284;BME280;56085;48.910;9.478;2023-02-19T05:45:57;98677.94;;;7.06;100.00
36284;BME280;56085;48.910;9.478;2023-02-19T05:48:22;98668.56;;;7.07;100.00
36284;BME280;56085;48.910;9.478;2023-02-19T05:50:47;98668.41;;;7.03;100.00
36284;BME280;56085;48.910;9.478;2023-02-19T05:53:13;98666.44;;;7.04;100.00
36284;BME280;56085;48.910;9.478;2023-02-19T05:55:38;98674.69;;;7.04;100.00
36284;BME280;56085;48.910;9.478;2023-02-19T05:58:03;98684.91;;;7.03;100.00
36284;BME280;56085;48.910;9.478;2023-02-19T06:00:49;98686.84;;;7.03;100.00
36284;BME280;56085;48.910;9.478;2023-02-19T06:03:14;98676.66;;;7.03;100.00
36284;BME280;56085;48.910;9.478;2023-02-19T06:05:39;98672.59;;;7.01;100.00
36284;BME280;56085;48.910;9.478;2023-02-19T06:08:04;98645.44;;;6.99;100.00
36284;BME280;56085;48.910;9.478;2023-02-19T06:10:29;98656.44;;;6.99;100.00
36284;BME280;56085;48.910;9.478;2023-02-19T06:12:54;98666.66;;;6.98;100.00
36284;BME280;56085;48.910;9.478;2023-02-19T06:15:20;98677.63;;;6.98;99.91
36284;BME280;56085;48.910;9.478;2023-02-19T06:17:45;98689.09;;;7.01;100.00
36284;BME280;56085;48.910;9.478;2023-02-19T06:20:10;98683.28;;;7.02;99.89
36284;BME280;56085;48.910;9.478;2023-02-19T06:22:36;98691.19;;;7.04;100.00
36284;BME280;56085;48.910;9.478;2023-02-19T06:25:01;98693.00;;;7.08;100.00
36284;BME280;56085;48.910;9.478;2023-02-19T06:27:26;98689.91;;;7.10;100.00
36284;BME280;56085;48.910;9.478;2023-02-19T06:29:52;98692.31;;;7.11;99.96
36284;BME280;56085;48.910;9.478;2023-02-19T06:32:17;98687.63;;;7.12;100.00
36284;BME280;56085;48.910;9.478;2023-02-19T06:34:42;98683.75;;;7.13;100.00
36284;BME280;56085;48.910;9.478;2023-02-19T06:37:07;98689.09;;;7.09;100.00
36284;BME280;56085;48.910;9.478;2023-02-19T06:39:32;98684.06;;;7.11;99.15
36284;BME280;56085;48.910;9.478;2023-02-19T06:41:58;98701.03;;;7.13;99.12
36284;BME280;56085;48.910;9.478;2023-02-19T06:44:23;98702.66;;;7.14;99.51
36284;BME280;56085;48.910;9.478;2023-02-19T06:46:48;98695.72;;;7.17;99.73
36284;BME280;56085;48.910;9.478;2023-02-19T06:49:14;98714.97;;;7.17;99.07
36284;BME280;56085;48.910;9.478;2023-02-19T06:51:39;98722.56;;;7.20;99.19
36284;BME280;56085;48.910;9.478;2023-02-19T06:54:04;98729.66;;;7.21;98.51
36284;BME280;56085;48.910;9.478;2023-02-19T06:56:33;98732.06;;;7.23;99.14
36284;BME280;56085;48.910;9.478;2023-02-19T06:59:00;98738.38;;;7.23;98.93
36284;BME280;56085;48.910;9.478;2023-02-19T07:01:26;98731.75;;;7.24;98.60
36284;BME280;56085;48.910;9.478;2023-02-19T07:03:51;98744.03;;;7.27;98.44
36284;BME280;56085;48.910;9.478;2023-02-19T07:06:17;98741.28;;;7.27;98.26
36284;BME280;56085;48.910;9.478;2023-02-19T07:08:42;98742.56;;;7.29;98.05
36284;BME280;56085;48.910;9.478;2023-02-19T07:11:08;98739.66;;;7.34;97.84
36284;BME280;56085;48.910;9.478;2023-02-19T07:13:33;98745.63;;;7.37;97.90
36284;BME280;56085;48.910;9.478;2023-02-19T07:15:59;98759.06;;;7.38;98.20
36284;BME280;56085;48.910;9.478;2023-02-19T07:18:24;98747.72;;;7.40;97.76
36284;BME280;56085;48.910;9.478;2023-02-19T07:20:49;98752.56;;;7.43;97.79
36284;BME280;56085;48.910;9.478;2023-02-19T07:23:14;98760.16;;;7.46;97.15
36284;BME280;56085;48.910;9.478;2023-02-19T07:25:40;98763.72;;;7.46;96.94
36284;BME280;56085;48.910;9.478;2023-02-19T07:28:05;98762.44;;;7.44;97.28
36284;BME280;56085;48.910;9.478;2023-02-19T07:30:30;98753.97;;;7.49;96.77
36284;BME280;56085;48.910;9.478;2023-02-19T07:32:55;98763.06;;;7.49;96.78
36284;BME280;56085;48.910;9.478;2023-02-19T07:35:21;98758.03;;;7.51;96.45
36284;BME280;56085;48.910;9.478;2023-02-19T07:37:46;98757.22;;;7.51;96.90
36284;BME280;56085;48.910;9.478;2023-02-19T07:40:11;98765.81;;;7.49;97.26
36284;BME280;56085;48.910;9.478;2023-02-19T07:42:36;98762.56;;;7.47;96.47
36284;BME280;56085;48.910;9.478;2023-02-19T07:45:01;98761.94;;;7.50;96.69
36284;BME280;56085;48.910;9.478;2023-02-19T07:47:27;98764.34;;;7.52;96.05
36284;BME280;56085;48.910;9.478;2023-02-19T07:49:52;98769.03;;;7.51;95.78
36284;BME280;56085;48.910;9.478;2023-02-19T07:52:17;98759.97;;;7.51;96.23
36284;BME280;56085;48.910;9.478;2023-02-19T07:54:43;98766.78;;;7.54;96.03
36284;BME280;56085;48.910;9.478;2023-02-19T07:57:08;98761.41;;;7.57;95.73
36284;BME280;56085;48.910;9.478;2023-02-19T07:59:33;98769.81;;;7.61;95.90
36284;BME280;56085;48.910;9.478;2023-02-19T08:01:58;98780.19;;;7.64;95.25
36284;BME280;56085;48.910;9.478;2023-02-19T08:04:42;98772.06;;;7.67;95.87
36284;BME280;56085;48.910;9.478;2023-02-19T08:07:07;98780.13;;;7.73;95.69
36284;BME280;56085;48.910;9.478;2023-02-19T08:09:32;98784.66;;;7.77;96.14
36284;BME280;56085;48.910;9.478;2023-02-19T08:11:58;98790.28;;;7.81;95.32
36284;BME280;56085;48.910;9.478;2023-02-19T08:14:41;98776.19;;;7.82;95.29
36284;BME280;56085;48.910;9.478;2023-02-19T08:17:06;98771.19;;;7.84;94.47
36284;BME280;56085;48.910;9.478;2023-02-19T08:19:32;98766.81;;;7.83;94.86
36284;BME280;56085;48.910;9.478;2023-02-19T08:21:57;98778.59;;;7.84;94.99
36284;BME280;56085;48.910;9.478;2023-02-19T08:24:22;98776.97;;;7.92;94.52
36284;BME280;56085;48.910;9.478;2023-02-19T08:26:47;98786.31;;;7.99;94.35
36284;BME280;56085;48.910;9.478;2023-02-19T08:29:12;98798.75;;;8.06;94.10
36284;BME280;56085;48.910;9.478;2023-02-19T08:31:38;98817.66;;;8.16;94.72
36284;BME280;56085;48.910;9.478;2023-02-19T08:34:03;98819.75;;;8.19;93.81
36284;BME280;56085;48.910;9.478;2023-02-19T08:36:28;98822.66;;;8.23;93.82
36284;BME280;56085;48.910;9.478;2023-02-19T08:38:53;98822.44;;;8.28;94.00
36284;BME280;56085;48.910;9.478;2023-02-19T08:41:19;98822.13;;;8.29;93.35
36284;BME280;56085;48.910;9.478;2023-02-19T08:43:44;98829.44;;;8.25;93.64
36284;BME280;56085;48.910;9.478;2023-02-19T08:46:10;98824.88;;;8.29;93.59
36284;BME280;56085;48.910;9.478;2023-02-19T08:48:35;98832.66;;;8.27;93.76
36284;BME280;56085;48.910;9.478;2023-02-19T08:51:02;98827.63;;;8.29;92.96
36284;BME280;56085;48.910;9.478;2023-02-19T08:53:28;98837.66;;;8.34;92.78
36284;BME280;56085;48.910;9.478;2023-02-19T08:55:53;98850.81;;;8.28;92.20
36284;BME280;56085;48.910;9.478;2023-02-19T08:58:18;98846.31;;;8.24;92.30
36284;BME280;56085;48.910;9.478;2023-02-19T09:00:44;98849.88;;;8.24;91.76
36284;BME280;56085;48.910;9.478;2023-02-19T09:03:09;98856.66;;;8.27;92.00
36284;BME280;56085;48.910;9.478;2023-02-19T09:05:34;98859.41;;;8.27;92.61
36284;BME280;56085;48.910;9.478;2023-02-19T09:07:59;98857.94;;;8.29;91.91
36284;BME280;56085;48.910;9.478;2023-02-19T09:10:24;98860.84;;;8.33;92.26
36284;BME280;56085;48.910;9.478;2023-02-19T09:12:50;98860.69;;;8.29;91.69
36284;BME280;56085;48.910;9.478;2023-02-19T09:15:15;98857.41;;;8.36;92.26
36284;BME280;56085;48.910;9.478;2023-02-19T09:17:40;98871.03;;;8.41;91.14
36284;BME280;56085;48.910;9.478;2023-02-19T09:20:06;98872.81;;;8.37;91.51
36284;BME280;56085;48.910;9.478;2023-02-19T09:22:31;98878.66;;;8.35;90.76
36284;BME280;56085;48.910;9.478;2023-02-19T09:24:57;98885.31;;;8.34;90.88
36284;BME280;56085;48.910;9.478;2023-02-19T09:27:22;98885.09;;;8.39;91.14
36284;BME280;56085;48.910;9.478;2023-02-19T09:29:47;98881.72;;;8.43;90.23
36284;BME280;56085;48.910;9.478;2023-02-19T09:32:12;98870.19;;;8.49;90.62
36284;BME280;56085;48.910;9.478;2023-02-19T09:34:38;98889.25;;;8.63;90.38
36284;BME280;56085;48.910;9.478;2023-02-19T09:37:03;98888.56;;;8.66;90.24
36284;BME280;56085;48.910;9.478;2023-02-19T09:39:29;98884.00;;;8.70;89.80
36284;BME280;56085;48.910;9.478;2023-02-19T09:41:55;98894.03;;;8.75;89.91
36284;BME280;56085;48.910;9.478;2023-02-19T09:44:28;98895.78;;;8.80;89.71
36284;BME280;56085;48.910;9.478;2023-02-19T09:46:54;98893.34;;;8.78;90.02
36284;BME280;56085;48.910;9.478;2023-02-19T09:49:26;98909.94;;;8.69;89.47
36284;BME280;56085;48.910;9.478;2023-02-19T09:51:57;98911.38;;;8.76;88.78
36284;BME280;56085;48.910;9.478;2023-02-19T09:54:24;98910.97;;;8.86;88.82
36284;BME280;56085;48.910;9.478;2023-02-19T09:56:50;98921.00;;;8.90;88.74
36284;BME280;56085;48.910;9.478;2023-02-19T09:59:20;98914.06;;;8.84;88.76
36284;BME280;56085;48.910;9.478;2023-02-19T10:01:48;98932.09;;;8.82;88.54
36284;BME280;56085;48.910;9.478;2023-02-19T10:04:16;98912.44;;;8.83;88.18
36284;BME280;56085;48.910;9.478;2023-02-19T10:06:41;98921.16;;;8.94;87.96
36284;BME280;56085;48.910;9.478;2023-02-19T10:09:22;98915.16;;;8.92;88.25
36284;BME280;56085;48.910;9.478;2023-02-19T10:11:50;98917.72;;;8.97;87.49
36284;BME280;56085;48.910;9.478;2023-02-19T10:14:22;98921.16;;;8.94;87.24
36284;BME280;56085;48.910;9.478;2023-02-19T10:16:52;98924.25;;;8.93;87.41
36284;BME280;56085;48.910;9.478;2023-02-19T10:19:17;98923.22;;;8.97;86.90
36284;BME280;56085;48.910;9.478;2023-02-19T10:21:43;98928.63;;;8.94;86.59
36284;BME280;56085;48.910;9.478;2023-02-19T10:24:11;98923.13;;;8.94;86.88
36284;BME280;56085;48.910;9.478;2023-02-19T10:26:40;98931.06;;;8.95;86.74
36284;BME280;56085;48.910;9.478;2023-02-19T10:29:05;98935.22;;;9.01;86.41
36284;BME280;56085;48.910;9.478;2023-02-19T10:31:31;98945.91;;;9.03;86.43
36284;BME280;56085;48.910;9.478;2023-02-19T10:33:57;98945.44;;;9.01;86.30
36284;BME280;56085;48.910;9.478;2023-02-19T10:38:50;98939.31;;;8.95;85.70
36284;BME280;56085;48.910;9.478;2023-02-19T10:41:16;98935.41;;;8.96;85.21
36284;BME280;56085;48.910;9.478;2023-02-19T10:43:49;98934.59;;;8.96;85.02
36284;BME280;56085;48.910;9.478;2023-02-19T10:46:28;98946.94;;;8.98;85.29
36284;BME280;56085;48.910;9.478;2023-02-19T10:48:59;98943.84;;;9.00;84.87
36284;BME280;56085;48.910;9.478;2023-02-19T10:51:35;98935.91;;;8.98;84.54
36284;BME280;56085;48.910;9.478;2023-02-19T10:54:15;98948.06;;;8.97;85.03
36284;BME280;56085;48.910;9.478;2023-02-19T10:56:41;98947.88;;;9.02;84.16
36284;BME280;56085;48.910;9.478;2023-02-19T11:01:57;98943.44;;;9.10;83.90
36284;BME280;56085;48.910;9.478;2023-02-19T11:04:23;98938.72;;;9.11;84.26
36284;BME280;56085;48.910;9.478;2023-02-19T11:06:48;98931.56;;;9.09;83.52
36284;BME280;56085;48.910;9.478;2023-02-19T11:09:27;98933.19;;;9.11;83.45
36284;BME280;56085;48.910;9.478;2023-02-19T11:11:53;98941.47;;;9.11;83.39
36284;BME280;56085;48.910;9.478;2023-02-19T11:14:20;98942.28;;;9.11;83.53
36284;BME280;56085;48.910;9.478;2023-02-19T11:16:57;98946.53;;;9.08;82.99
36284;BME280;56085;48.910;9.478;2023-02-19T11:19:34;98944.44;;;9.05;82.87
36284;BME280;56085;48.910;9.478;2023-02-19T11:22:00;98948.34;;;9.04;83.00
36284;BME280;56085;48.910;9.478;2023-02-19T11:24:31;98944.78;;;9.04;82.85
36284;BME280;56085;48.910;9.478;2023-02-19T11:26:58;98942.28;;;9.11;83.05
36284;BME280;56085;48.910;9.478;2023-02-19T11:29:24;98945.91;;;9.24;82.92
36284;BME280;56085;48.910;9.478;2023-02-19T11:31:52;98943.00;;;9.41;82.51
36284;BME280;56085;48.910;9.478;2023-02-19T11:36:45;98953.72;;;9.43;82.27
36284;BME280;56085;48.910;9.478;2023-02-19T11:47:44;98969.94;;;9.44;80.91
36284;BME280;56085;48.910;9.478;2023-02-19T11:52:25;98981.25;;;9.52;80.81
36284;BME280;56085;48.910;9.478;2023-02-19T11:55:17;98977.28;;;9.61;80.97
36284;BME280;56085;48.910;9.478;2023-02-19T11:58:42;98978.06;;;9.62;80.26
36284;BME280;56085;48.910;9.478;2023-02-19T12:00:39;98963.81;;;9.60;80.42
36284;BME280;56085;48.910;9.478;2023-02-19T12:05:59;98965.56;;;9.65;80.31
36284;BME280;56085;48.910;9.478;2023-02-19T12:11:31;98975.66;;;9.60;79.78
36284;BME280;56085;48.910;9.478;2023-02-19T12:16:30;98969.78;;;9.62;79.06
36284;BME280;56085;48.910;9.478;2023-02-19T12:23:53;98966.16;;;9.70;79.11
36284;BME280;56085;48.910;9.478;2023-02-19T12:26:29;98971.34;;;9.72;78.55
36284;BME280;56085;48.910;9.478;2023-02-19T12:29:14;98966.84;;;9.67;78.54
36284;BME280;56085;48.910;9.478;2023-02-19T12:34:53;98975.69;;;9.94;78.66
36284;BME280;56085;48.910;9.478;2023-02-19T12:37:21;98977.84;;;9.88;78.07
36284;BME280;56085;48.910;9.478;2023-02-19T12:39:56;98973.81;;;9.86;77.88
36284;BME280;56085;48.910;9.478;2023-02-19T12:42:31;98963.19;;;9.75;78.05
36284;BME280;56085;48.910;9.478;2023-02-19T12:45:06;98958.03;;;9.86;77.46
36284;BME280;56085;48.910;9.478;2023-02-19T12:47:39;98969.25;;;10.02;77.98
36284;BME280;56085;48.910;9.478;2023-02-19T12:50:15;98957.97;;;10.07;77.34
36284;BME280;56085;48.910;9.478;2023-02-19T12:52:42;98945.94;;;10.24;77.73
36284;BME280;56085;48.910;9.478;2023-02-19T12:55:17;98956.44;;;10.31;76.96
36284;BME280;56085;48.910;9.478;2023-02-19T12:57:45;98948.94;;;10.19;77.01
36284;BME280;56085;48.910;9.478;2023-02-19T13:00:26;98958.09;;;10.57;76.71
36284;BME280;56085;48.910;9.478;2023-02-19T13:02:54;98948.59;;;10.33;76.22
36284;BME280;56085;48.910;9.478;2023-02-19T13:12:56;98947.84;;;9.44;76.04
36284;BME280;56085;48.910;9.478;2023-02-19T13:17:49;98949.16;;;9.26;75.49
36284;BME280;56085;48.910;9.478;2023-02-19T13:20:26;98947.94;;;9.15;75.46
36284;BME280;56085;48.910;9.478;2023-02-19T13:25:45;98955.34;;;9.23;75.99
36284;BME280;56085;48.910;9.478;2023-02-19T13:28:18;98956.94;;;9.24;75.90
36284;BME280;56085;48.910;9.478;2023-02-19T13:30:55;98955.34;;;9.23;75.63
36284;BME280;56085;48.910;9.478;2023-02-19T13:33:31;98959.44;;;9.17;75.49
36284;BME280;56085;48.910;9.478;2023-02-19T13:36:00;98958.09;;;9.02;75.03
36284;BME280;56085;48.910;9.478;2023-02-19T13:38:30;98960.56;;;8.95;75.45
36284;BME280;56085;48.910;9.478;2023-02-19T13:40:56;98968.38;;;8.93;75.59
36284;BME280;56085;48.910;9.478;2023-02-19T13:43:29;98975.91;;;8.74;75.42
36284;BME280;56085;48.910;9.478;2023-02-19T13:46:08;98964.41;;;8.72;76.28
36284;BME280;56085;48.910;9.478;2023-02-19T13:58:51;98947.00;;;9.11;76.51
36284;BME280;56085;48.910;9.478;2023-02-19T14:01:17;98958.97;;;9.15;77.26
36284;BME280;56085;48.910;9.478;2023-02-19T14:03:53;98945.19;;;9.15;77.38
36284;BME280;56085;48.910;9.478;2023-02-19T14:06:18;98942.81;;;9.25;77.17
36284;BME280;56085;48.910;9.478;2023-02-19T14:08:56;98946.94;;;9.19;76.93
36284;BME280;56085;48.910;9.478;2023-02-19T14:16:50;98944.22;;;9.11;77.17
36284;BME280;56085;48.910;9.478;2023-02-19T14:22:00;98950.88;;;9.09;77.45
36284;BME280;56085;48.910;9.478;2023-02-19T14:24:25;98956.34;;;9.18;77.02
36284;BME280;56085;48.910;9.478;2023-02-19T14:26:50;98957.97;;;9.19;77.27
36284;BME280;56085;48.910;9.478;2023-02-19T14:29:16;98951.25;;;9.29;77.22
36284;BME280;56085;48.910;9.478;2023-02-19T14:31:43;98955.28;;;9.32;77.09
36284;BME280;56085;48.910;9.478;2023-02-19T14:34:16;98965.03;;;9.29;76.80
36284;BME280;56085;48.910;9.478;2023-02-19T14:36:49;98964.88;;;9.25;76.93